sensor_id;sensor_type;location;lat;lon;timestamp;P1;durP1;ratioP1;P2;durP2;ratioP2
13687;SDS011;6916;51.504;7.416;2023-06-14T00:05:18;6.45;;;4.72;;
13687;SDS011;6916;51.504;7.416;2023-06-14T00:15:20;5.18;;;3.95;;
13687;SDS011;6916;51.504;7.416;2023-06-14T00:25:23;8.43;;;4.57;;
13687;SDS011;6916;51.504;7.416;2023-06-14T00:35:31;11.30;;;4.55;;
13687;SDS011;6916;51.504;7.416;2023-06-14T00:45:33;5.88;;;4.72;;
13687;SDS011;6916;51.504;7.416;2023-06-14T00:55:37;7.15;;;4.40;;
13687;SDS011;6916;51.504;7.416;2023-06-14T01:05:40;6.10;;;4.50;;
13687;SDS011;6916;51.504;7.416;2023-06-14T01:15:44;8.55;;;4.00;;
13687;SDS011;6916;51.504;7.416;2023-06-14T01:25:48;8.50;;;4.07;;
13687;SDS011;6916;51.504;7.416;2023-06-14T01:35:54;5.68;;;4.50;;
13687;SDS011;6916;51.504;7.416;2023-06-14T01:45:57;5.47;;;4.63;;
13687;SDS011;6916;51.504;7.416;2023-06-14T01:56:02;5.13;;;4.20;;
13687;SDS011;6916;51.504;7.416;2023-06-14T02:06:05;9.52;;;4.40;;
13687;SDS011;6916;51.504;7.416;2023-06-14T02:16:08;5.55;;;4.25;;
13687;SDS011;6916;51.504;7.416;2023-06-14T02:26:10;5.00;;;3.63;;
13687;SDS011;6916;51.504;7.416;2023-06-14T02:36:12;5.45;;;3.80;;
13687;SDS011;6916;51.504;7.416;2023-06-14T02:46:15;4.72;;;3.60;;
13687;SDS011;6916;51.504;7.416;2023-06-14T02:56:17;4.93;;;3.47;;
13687;SDS011;6916;51.504;7.416;2023-06-14T03:06:22;4.70;;;3.22;;
13687;SDS011;6916;51.504;7.416;2023-06-14T03:16:28;5.78;;;4.03;;
13687;SDS011;6916;51.504;7.416;2023-06-14T03:26:31;7.05;;;3.97;;
13687;SDS011;6916;51.504;7.416;2023-06-14T03:36:37;3.38;;;3.03;;
13687;SDS011;6916;51.504;7.416;2023-06-14T03:46:39;3.60;;;3.22;;
13687;SDS011;6916;51.504;7.416;2023-06-14T03:56:42;5.97;;;2.90;;
13687;SDS011;6916;51.504;7.416;2023-06-14T04:06:45;5.83;;;3.23;;
13687;SDS011;6916;51.504;7.416;2023-06-14T04:16:50;4.53;;;2.72;;
13687;SDS011;6916;51.504;7.416;2023-06-14T04:27:03;8.40;;;3.33;;
13687;SDS011;6916;51.504;7.416;2023-06-14T04:37:06;4.80;;;2.80;;
13687;SDS011;6916;51.504;7.416;2023-06-14T04:47:13;5.32;;;3.05;;
13687;SDS011;6916;51.504;7.416;2023-06-14T04:57:17;5.30;;;2.85;;
13687;SDS011;6916;51.504;7.416;2023-06-14T05:07:22;4.47;;;2.45;;
13687;SDS011;6916;51.504;7.416;2023-06-14T05:17:26;8.30;;;2.80;;
13687;SDS011;6916;51.504;7.416;2023-06-14T05:27:30;5.53;;;2.70;;
13687;SDS011;6916;51.504;7.416;2023-06-14T05:37:32;8.10;;;2.63;;
13687;SDS011;6916;51.504;7.416;2023-06-14T05:47:34;5.50;;;2.58;;
13687;SDS011;6916;51.504;7.416;2023-06-14T05:57:37;5.57;;;2.38;;
13687;SDS011;6916;51.504;7.416;2023-06-14T06:07:40;2.67;;;2.00;;
13687;SDS011;6916;51.504;7.416;2023-06-14T06:17:42;6.63;;;2.67;;
13687;SDS011;6916;51.504;7.416;2023-06-14T06:27:57;4.78;;;2.17;;
13687;SDS011;6916;51.504;7.416;2023-06-14T06:38:00;4.13;;;1.95;;
13687;SDS011;6916;51.504;7.416;2023-06-14T06:48:03;3.15;;;1.77;;
13687;SDS011;6916;51.504;7.416;2023-06-14T06:58:05;2.80;;;1.42;;
13687;SDS011;6916;51.504;7.416;2023-06-14T07:08:08;2.95;;;1.60;;
13687;SDS011;6916;51.504;7.416;2023-06-14T07:18:10;3.90;;;1.83;;
13687;SDS011;6916;51.504;7.416;2023-06-14T07:28:17;4.38;;;1.70;;
13687;SDS011;6916;51.504;7.416;2023-06-14T07:38:20;4.72;;;1.77;;
13687;SDS011;6916;51.504;7.416;2023-06-14T07:48:22;3.35;;;1.50;;
13687;SDS011;6916;51.504;7.416;2023-06-14T07:58:27;6.07;;;1.58;;
13687;SDS011;6916;51.504;7.416;2023-06-14T08:08:29;2.70;;;1.17;;
13687;SDS011;6916;51.504;7.416;2023-06-14T08:18:32;1.42;;;1.10;;
13687;SDS011;6916;51.504;7.416;2023-06-14T08:28:34;4.50;;;1.05;;
13687;SDS011;6916;51.504;7.416;2023-06-14T08:38:37;1.95;;;0.90;;
13687;SDS011;6916;51.504;7.416;2023-06-14T08:48:39;3.05;;;0.73;;
13687;SDS011;6916;51.504;7.416;2023-06-14T08:58:42;2.22;;;0.70;;
13687;SDS011;6916;51.504;7.416;2023-06-14T09:08:48;5.10;;;0.93;;
13687;SDS011;6916;51.504;7.416;2023-06-14T09:18:51;1.00;;;0.47;;
13687;SDS011;6916;51.504;7.416;2023-06-14T09:28:53;1.40;;;0.60;;
13687;SDS011;6916;51.504;7.416;2023-06-14T09:39:01;1.55;;;0.68;;
13687;SDS011;6916;51.504;7.416;2023-06-14T09:49:08;1.67;;;0.55;;
13687;SDS011;6916;51.504;7.416;2023-06-14T09:59:10;2.70;;;0.80;;
13687;SDS011;6916;51.504;7.416;2023-06-14T10:09:14;1.70;;;1.10;;
13687;SDS011;6916;51.504;7.416;2023-06-14T10:19:18;3.75;;;0.70;;
13687;SDS011;6916;51.504;7.416;2023-06-14T10:39:54;2.65;;;0.70;;
13687;SDS011;6916;51.504;7.416;2023-06-14T10:50:06;2.20;;;0.65;;
13687;SDS011;6916;51.504;7.416;2023-06-14T11:00:09;2.88;;;0.60;;
13687;SDS011;6916;51.504;7.416;2023-06-14T11:20:42;3.72;;;1.00;;
13687;SDS011;6916;51.504;7.416;2023-06-14T11:30:44;4.95;;;1.00;;
13687;SDS011;6916;51.504;7.416;2023-06-14T11:40:47;2.25;;;0.98;;
13687;SDS011;6916;51.504;7.416;2023-06-14T11:50:49;4.93;;;1.20;;
13687;SDS011;6916;51.504;7.416;2023-06-14T12:00:52;1.73;;;1.10;;
13687;SDS011;6916;51.504;7.416;2023-06-14T12:10:55;1.63;;;1.40;;
13687;SDS011;6916;51.504;7.416;2023-06-14T12:20:58;1.50;;;0.90;;
13687;SDS011;6916;51.504;7.416;2023-06-14T12:31:04;3.20;;;1.20;;
13687;SDS011;6916;51.504;7.416;2023-06-14T12:41:08;2.60;;;1.15;;
13687;SDS011;6916;51.504;7.416;2023-06-14T12:51:10;3.78;;;1.02;;
13687;SDS011;6916;51.504;7.416;2023-06-14T13:01:12;2.80;;;1.00;;
13687;SDS011;6916;51.504;7.416;2023-06-14T13:11:14;3.63;;;1.40;;
13687;SDS011;6916;51.504;7.416;2023-06-14T13:21:17;2.45;;;1.23;;
13687;SDS011;6916;51.504;7.416;2023-06-14T13:31:19;1.48;;;1.35;;
13687;SDS011;6916;51.504;7.416;2023-06-14T13:41:21;1.55;;;1.17;;
13687;SDS011;6916;51.504;7.416;2023-06-14T13:51:23;1.90;;;1.20;;
13687;SDS011;6916;51.504;7.416;2023-06-14T14:01:26;1.33;;;1.10;;
13687;SDS011;6916;51.504;7.416;2023-06-14T14:11:31;1.75;;;1.00;;
13687;SDS011;6916;51.504;7.416;2023-06-14T14:21:37;2.22;;;1.70;;
13687;SDS011;6916;51.504;7.416;2023-06-14T14:31:39;6.07;;;1.25;;
13687;SDS011;6916;51.504;7.416;2023-06-14T14:41:42;1.73;;;1.50;;
13687;SDS011;6916;51.504;7.416;2023-06-14T14:51:44;3.67;;;1.42;;
13687;SDS011;6916;51.504;7.416;2023-06-14T15:01:47;5.00;;;1.67;;
13687;SDS011;6916;51.504;7.416;2023-06-14T15:11:49;2.80;;;1.40;;
13687;SDS011;6916;51.504;7.416;2023-06-14T15:21:52;3.30;;;1.20;;
13687;SDS011;6916;51.504;7.416;2023-06-14T15:31:54;1.75;;;0.95;;
13687;SDS011;6916;51.504;7.416;2023-06-14T15:41:57;2.13;;;1.52;;
13687;SDS011;6916;51.504;7.416;2023-06-14T15:52:00;5.22;;;1.30;;
13687;SDS011;6916;51.504;7.416;2023-06-14T16:02:03;1.70;;;1.10;;
13687;SDS011;6916;51.504;7.416;2023-06-14T16:14:50;1.63;;;1.08;;
13687;SDS011;6916;51.504;7.416;2023-06-14T16:24:53;3.63;;;1.65;;
13687;SDS011;6916;51.504;7.416;2023-06-14T16:34:55;1.50;;;1.40;;
13687;SDS011;6916;51.504;7.416;2023-06-14T16:44:58;2.15;;;1.50;;
13687;SDS011;6916;51.504;7.416;2023-06-14T16:55:00;3.42;;;1.63;;
13687;SDS011;6916;51.504;7.416;2023-06-14T17:05:03;3.72;;;1.40;;
13687;SDS011;6916;51.504;7.416;2023-06-14T17:15:07;1.65;;;1.10;;
13687;SDS011;6916;51.504;7.416;2023-06-14T17:25:09;1.65;;;1.10;;
13687;SDS011;6916;51.504;7.416;2023-06-14T17:35:11;4.95;;;1.02;;
13687;SDS011;6916;51.504;7.416;2023-06-14T17:45:16;1.50;;;1.15;;
13687;SDS011;6916;51.504;7.416;2023-06-14T17:55:19;3.33;;;1.17;;
13687;SDS011;6916;51.504;7.416;2023-06-14T18:05:21;4.88;;;1.25;;
13687;SDS011;6916;51.504;7.416;2023-06-14T18:15:25;3.10;;;1.00;;
13687;SDS011;6916;51.504;7.416;2023-06-14T18:25:27;1.27;;;0.98;;
13687;SDS011;6916;51.504;7.416;2023-06-14T18:35:30;1.92;;;1.67;;
13687;SDS011;6916;51.504;7.416;2023-06-14T18:45:33;3.92;;;3.05;;
13687;SDS011;6916;51.504;7.416;2023-06-14T18:55:35;3.47;;;1.77;;
13687;SDS011;6916;51.504;7.416;2023-06-14T19:05:37;1.98;;;1.08;;
13687;SDS011;6916;51.504;7.416;2023-06-14T19:15:40;1.30;;;1.10;;
13687;SDS011;6916;51.504;7.416;2023-06-14T19:25:43;1.52;;;0.90;;
13687;SDS011;6916;51.504;7.416;2023-06-14T19:35:45;6.63;;;4.78;;
13687;SDS011;6916;51.504;7.416;2023-06-14T19:45:48;2.45;;;1.30;;
13687;SDS011;6916;51.504;7.416;2023-06-14T19:55:50;2.70;;;1.92;;
13687;SDS011;6916;51.504;7.416;2023-06-14T20:05:53;2.75;;;1.33;;
13687;SDS011;6916;51.504;7.416;2023-06-14T20:15:57;1.70;;;1.58;;
13687;SDS011;6916;51.504;7.416;2023-06-14T20:26:00;1.75;;;1.40;;
13687;SDS011;6916;51.504;7.416;2023-06-14T20:36:03;2.83;;;1.98;;
13687;SDS011;6916;51.504;7.416;2023-06-14T20:46:05;8.90;;;5.03;;
13687;SDS011;6916;51.504;7.416;2023-06-14T20:56:10;10.25;;;6.78;;
13687;SDS011;6916;51.504;7.416;2023-06-14T21:06:13;5.28;;;2.88;;
13687;SDS011;6916;51.504;7.416;2023-06-14T21:16:17;4.40;;;2.20;;
13687;SDS011;6916;51.504;7.416;2023-06-14T21:26:19;3.38;;;2.33;;
13687;SDS011;6916;51.504;7.416;2023-06-14T21:36:24;8.55;;;2.70;;
13687;SDS011;6916;51.504;7.416;2023-06-14T21:46:29;4.65;;;2.13;;
13687;SDS011;6916;51.504;7.416;2023-06-14T21:56:32;5.53;;;2.85;;
13687;SDS011;6916;51.504;7.416;2023-06-14T22:06:34;3.15;;;2.78;;
13687;SDS011;6916;51.504;7.416;2023-06-14T22:16:37;3.05;;;2.75;;
13687;SDS011;6916;51.504;7.416;2023-06-14T22:26:41;4.22;;;2.78;;
13687;SDS011;6916;51.504;7.416;2023-06-14T22:36:49;4.13;;;2.78;;
13687;SDS011;6916;51.504;7.416;2023-06-14T22:46:56;2.63;;;2.33;;
13687;SDS011;6916;51.504;7.416;2023-06-14T22:57:02;5.43;;;2.63;;
13687;SDS011;6916;51.504;7.416;2023-06-14T23:07:04;9.02;;;3.55;;
13687;SDS011;6916;51.504;7.416;2023-06-14T23:17:07;7.50;;;3.15;;
13687;SDS011;6916;51.504;7.416;2023-06-14T23:27:10;3.53;;;2.15;;
13687;SDS011;6916;51.504;7.416;2023-06-14T23:37:12;3.10;;;2.58;;
13687;SDS011;6916;51.504;7.416;2023-06-14T23:47:14;3.83;;;2.90;;
13687;SDS011;6916;51.504;7.416;2023-06-14T23:57:17;3.88;;;2.88;;
